createdAt,value
2022-09-19T00:02:27.844Z,15.80
2022-09-19T00:04:56.326Z,15.90
2022-09-19T00:07:24.746Z,16.20
2022-09-19T00:09:53.157Z,16.00
2022-09-19T00:12:23.315Z,16.00
2022-09-19T00:14:51.565Z,15.70
2022-09-19T00:17:19.862Z,15.40
2022-09-19T00:19:48.136Z,15.30
2022-09-19T00:22:16.412Z,15.30
2022-09-19T00:24:47.793Z,15.30
2022-09-19T00:27:19.830Z,15.50
2022-09-19T00:29:49.995Z,15.50
2022-09-19T00:32:18.946Z,15.70
2022-09-19T00:34:50.000Z,15.70
2022-09-19T00:37:19.395Z,15.70
2022-09-19T00:39:47.844Z,15.80
2022-09-19T00:42:19.118Z,15.60
2022-09-19T00:45:01.520Z,15.80
2022-09-19T00:47:36.549Z,15.90
2022-09-19T00:50:10.925Z,15.80
2022-09-19T00:52:44.598Z,15.80
2022-09-19T00:55:12.925Z,15.80
2022-09-19T00:57:51.443Z,15.90
2022-09-19T01:00:21.206Z,15.90
2022-09-19T01:02:50.226Z,15.90
2022-09-19T01:05:19.325Z,15.70
2022-09-19T01:08:02.422Z,15.60
2022-09-19T01:10:43.630Z,15.70
2022-09-19T01:13:17.438Z,15.70
2022-09-19T01:15:55.705Z,15.60
2022-09-19T01:18:28.557Z,15.60
2022-09-19T01:21:29.070Z,15.70
2022-09-19T01:24:38.274Z,15.70
2022-09-19T01:27:32.685Z,15.40
2022-09-19T01:30:07.021Z,15.60
2022-09-19T01:32:39.436Z,15.70
2022-09-19T01:35:13.302Z,15.80
2022-09-19T01:37:47.133Z,15.80
2022-09-19T01:40:18.004Z,15.90
2022-09-19T01:42:56.369Z,15.70
2022-09-19T01:45:31.462Z,15.60
2022-09-19T01:48:08.606Z,15.80
2022-09-19T01:50:57.054Z,15.70
2022-09-19T01:53:39.849Z,15.70
2022-09-19T01:56:12.806Z,15.70
2022-09-19T01:58:49.690Z,15.70
2022-09-19T02:01:26.622Z,15.60
2022-09-19T02:04:02.257Z,15.60
2022-09-19T02:06:49.233Z,15.60
2022-09-19T02:09:24.955Z,15.60
2022-09-19T02:11:53.994Z,15.50
2022-09-19T02:14:28.811Z,15.60
2022-09-19T02:17:04.313Z,15.70
2022-09-19T02:19:35.619Z,15.80
2022-09-19T02:22:09.445Z,15.80
2022-09-19T02:24:42.827Z,15.80
2022-09-19T02:27:18.673Z,15.70
2022-09-19T02:29:51.379Z,15.70
2022-09-19T02:32:22.839Z,15.50
2022-09-19T02:34:52.337Z,15.50
2022-09-19T02:37:31.657Z,15.70
2022-09-19T02:40:03.643Z,15.50
2022-09-19T02:42:38.844Z,15.50
2022-09-19T02:45:12.063Z,15.60
2022-09-19T02:47:51.702Z,15.50
2022-09-19T02:50:24.941Z,15.40
2022-09-19T02:52:55.486Z,15.30
2022-09-19T02:55:27.381Z,15.50
2022-09-19T02:58:00.201Z,15.40
2022-09-19T03:00:28.643Z,15.30
2022-09-19T03:03:02.244Z,15.10
2022-09-19T03:05:33.491Z,15.20
2022-09-19T03:08:05.997Z,15.20
2022-09-19T03:10:38.527Z,15.20
2022-09-19T03:13:09.592Z,15.10
2022-09-19T03:15:43.635Z,15.10
2022-09-19T03:18:15.334Z,15.20
2022-09-19T03:20:49.603Z,15.30
2022-09-19T03:23:23.116Z,15.20
2022-09-19T03:25:51.513Z,15.40
2022-09-19T03:28:21.341Z,15.40
2022-09-19T03:30:49.821Z,15.20
2022-09-19T03:33:19.487Z,15.20
2022-09-19T03:35:52.664Z,15.20
2022-09-19T03:38:22.828Z,15.00
2022-09-19T03:40:51.189Z,15.00
2022-09-19T03:43:21.347Z,15.10
2022-09-19T03:45:49.723Z,15.00
2022-09-19T03:48:20.127Z,15.00
2022-09-19T03:50:48.413Z,15.30
2022-09-19T03:53:18.710Z,15.40
2022-09-19T03:55:47.069Z,15.20
2022-09-19T03:58:15.886Z,15.30
2022-09-19T04:00:44.224Z,15.50
2022-09-19T04:03:12.521Z,15.50
2022-09-19T04:05:43.645Z,15.40
2022-09-19T04:08:12.048Z,15.60
2022-09-19T04:10:43.496Z,15.70
2022-09-19T04:13:12.186Z,15.70
2022-09-19T04:15:41.546Z,15.70
2022-09-19T04:18:09.823Z,15.80
2022-09-19T04:20:39.244Z,15.90
2022-09-19T04:23:08.901Z,15.90
2022-09-19T04:25:37.181Z,15.40
2022-09-19T04:28:07.556Z,15.50
2022-09-19T04:30:38.001Z,15.50
2022-09-19T04:33:07.987Z,15.60
2022-09-19T04:35:37.711Z,15.90
2022-09-19T04:38:07.541Z,15.90
2022-09-19T04:40:41.000Z,15.90
2022-09-19T04:43:10.511Z,15.90
2022-09-19T04:45:41.161Z,15.90
2022-09-19T04:48:09.616Z,15.80
2022-09-19T04:50:38.586Z,16.00
2022-09-19T04:53:06.888Z,15.90
2022-09-19T04:55:37.218Z,16.00
2022-09-19T04:58:07.415Z,15.90
2022-09-19T05:00:41.951Z,15.90
2022-09-19T05:03:13.275Z,16.00
2022-09-19T05:05:45.455Z,15.90
2022-09-19T05:08:16.545Z,15.90
2022-09-19T05:10:46.821Z,15.90
2022-09-19T05:13:16.880Z,16.00
2022-09-19T05:15:46.756Z,15.90
2022-09-19T05:18:15.172Z,15.90
2022-09-19T05:20:43.648Z,15.80
2022-09-19T05:23:11.921Z,15.70
2022-09-19T05:25:40.986Z,15.60
2022-09-19T05:28:10.244Z,15.50
2022-09-19T05:30:47.314Z,15.50
2022-09-19T05:33:15.668Z,15.60
2022-09-19T05:35:43.990Z,15.50
2022-09-19T05:38:12.322Z,15.40
2022-09-19T05:40:40.929Z,15.40
2022-09-19T05:43:09.279Z,15.50
2022-09-19T05:45:39.022Z,15.50
2022-09-19T05:48:08.927Z,15.50
2022-09-19T05:50:37.282Z,15.40
2022-09-19T05:53:23.357Z,15.40
2022-09-19T05:55:51.747Z,15.20
2022-09-19T05:58:20.710Z,15.20
2022-09-19T06:00:49.393Z,15.30
2022-09-19T06:03:21.453Z,15.50
2022-09-19T06:05:52.025Z,15.50
2022-09-19T06:08:22.505Z,15.50
2022-09-19T06:10:51.625Z,15.60
2022-09-19T06:13:22.195Z,15.80
2022-09-19T06:15:51.025Z,16.00
2022-09-19T06:18:20.840Z,16.10
2022-09-19T06:20:49.147Z,16.20
2022-09-19T06:23:17.433Z,16.30
2022-09-19T06:25:45.713Z,16.40
2022-09-19T06:28:14.622Z,16.40
2022-09-19T06:30:43.100Z,16.40
2022-09-19T06:33:11.348Z,16.40
2022-09-19T06:35:41.027Z,16.40
2022-09-19T06:38:09.885Z,16.50
2022-09-19T06:40:39.485Z,16.50
2022-09-19T06:43:08.756Z,16.70
2022-09-19T06:45:38.829Z,16.80
2022-09-19T06:48:08.156Z,16.90
2022-09-19T06:50:36.690Z,17.00
2022-09-19T06:53:06.432Z,17.00
2022-09-19T06:55:34.689Z,16.90
2022-09-19T06:58:04.582Z,16.70
2022-09-19T07:00:36.545Z,16.70
2022-09-19T07:03:07.093Z,16.80
2022-09-19T07:05:36.996Z,17.00
2022-09-19T07:08:07.035Z,17.10
2022-09-19T07:10:38.102Z,17.30
2022-09-19T07:13:07.872Z,17.40
2022-09-19T07:15:37.963Z,17.60
2022-09-19T07:18:09.219Z,17.60
2022-09-19T07:20:38.782Z,17.70
2022-09-19T07:23:13.343Z,17.80
2022-09-19T07:25:41.977Z,17.90
2022-09-19T07:28:13.681Z,17.90
2022-09-19T07:30:44.548Z,18.10
2022-09-19T07:33:15.868Z,18.20
2022-09-19T07:35:44.290Z,18.20
2022-09-19T07:38:16.266Z,18.20
2022-09-19T07:40:44.729Z,18.20
2022-09-19T07:43:14.553Z,18.20
2022-09-19T07:45:46.187Z,18.30
2022-09-19T07:48:15.241Z,18.30
2022-09-19T07:50:46.997Z,18.40
2022-09-19T07:53:23.620Z,18.50
2022-09-19T07:55:53.309Z,18.60
2022-09-19T07:58:22.671Z,18.60
2022-09-19T08:00:51.861Z,18.70
2022-09-19T08:03:22.184Z,18.70
2022-09-19T08:05:52.011Z,18.90
2022-09-19T08:08:24.153Z,19.10
2022-09-19T08:10:52.608Z,19.10
2022-09-19T08:13:22.786Z,19.20
2022-09-19T08:15:51.089Z,19.40
2022-09-19T08:18:21.271Z,19.40
2022-09-19T08:20:50.032Z,19.20
2022-09-19T08:23:20.019Z,19.30
2022-09-19T08:25:52.371Z,19.50
2022-09-19T08:28:22.252Z,19.60
2022-09-19T08:30:50.924Z,19.60
2022-09-19T08:33:20.160Z,19.70
2022-09-19T08:35:48.663Z,19.90
2022-09-19T08:38:16.950Z,19.90
2022-09-19T08:41:19.320Z,20.00
2022-09-19T08:46:57.030Z,20.20
2022-09-19T08:49:30.118Z,20.20
2022-09-19T08:52:03.733Z,20.40
2022-09-19T08:54:35.621Z,20.50
2022-09-19T08:57:08.037Z,20.50
2022-09-19T08:59:40.590Z,20.60
2022-09-19T09:02:24.976Z,20.60
2022-09-19T09:04:55.963Z,20.70
2022-09-19T09:07:43.273Z,20.60
2022-09-19T09:10:24.854Z,20.60
2022-09-19T09:13:04.456Z,20.70
2022-09-19T09:15:59.417Z,20.80
2022-09-19T09:18:51.548Z,20.90
2022-09-19T09:21:26.770Z,20.90
2022-09-19T09:24:23.503Z,21.10
2022-09-19T09:26:56.694Z,21.10
2022-09-19T09:29:31.549Z,21.10
2022-09-19T09:32:06.922Z,21.10
2022-09-19T09:34:41.422Z,21.10
2022-09-19T09:37:21.316Z,21.10
2022-09-19T09:40:10.943Z,21.10
2022-09-19T09:42:47.636Z,21.20
2022-09-19T09:45:23.664Z,21.30
2022-09-19T09:48:01.206Z,21.40
2022-09-19T09:50:55.719Z,21.60
2022-09-19T09:53:35.559Z,21.70
2022-09-19T09:56:16.264Z,21.70
2022-09-19T09:58:56.270Z,21.80
2022-09-19T10:01:52.569Z,21.80
2022-09-19T10:04:31.302Z,22.00
2022-09-19T10:07:13.206Z,22.00
2022-09-19T10:09:46.725Z,22.10
2022-09-19T10:15:18.779Z,22.10
2022-09-19T10:17:52.895Z,22.20
2022-09-19T10:20:30.960Z,22.30
2022-09-19T10:23:00.043Z,22.30
2022-09-19T10:25:28.453Z,22.40
2022-09-19T10:27:57.407Z,22.40
2022-09-19T10:30:28.369Z,22.40
2022-09-19T10:32:58.090Z,22.40
2022-09-19T10:35:28.847Z,22.50
2022-09-19T10:38:02.254Z,22.70
2022-09-19T10:40:31.999Z,22.70
2022-09-19T10:43:02.356Z,22.90
2022-09-19T10:45:36.491Z,22.90
2022-09-19T10:48:20.133Z,22.90
2022-09-19T10:50:50.234Z,23.00
2022-09-19T10:53:23.472Z,22.90
2022-09-19T10:55:53.290Z,23.00
2022-09-19T10:58:24.572Z,23.00
2022-09-19T11:00:56.974Z,23.20
2022-09-19T11:03:30.389Z,23.30
2022-09-19T11:06:11.627Z,23.20
2022-09-19T11:08:45.190Z,23.20
2022-09-19T11:11:37.638Z,23.20
2022-09-19T11:14:20.499Z,23.40
2022-09-19T11:17:11.429Z,23.30
2022-09-19T11:20:00.050Z,23.20
2022-09-19T11:22:44.608Z,23.40
2022-09-19T11:25:23.662Z,23.20
2022-09-19T11:28:06.991Z,23.20
2022-09-19T11:30:41.778Z,23.20
2022-09-19T11:36:35.231Z,23.40
2022-09-19T11:42:12.929Z,23.30
2022-09-19T11:44:56.204Z,23.40
2022-09-19T11:47:52.212Z,23.60
2022-09-19T11:50:40.610Z,23.80
2022-09-19T11:53:33.070Z,23.70
2022-09-19T11:56:11.590Z,23.70
2022-09-19T11:58:52.320Z,23.90
2022-09-19T12:01:36.818Z,23.90
2022-09-19T12:04:20.780Z,23.80
2022-09-19T12:07:08.137Z,23.90
2022-09-19T12:09:45.495Z,24.10
2022-09-19T12:12:16.566Z,24.10
2022-09-19T12:14:52.121Z,23.80
2022-09-19T12:17:27.302Z,23.90
2022-09-19T12:20:00.947Z,23.80
2022-09-19T12:22:32.221Z,23.80
2022-09-19T12:25:09.566Z,23.80
2022-09-19T12:27:45.891Z,23.90
2022-09-19T12:30:16.533Z,23.90
2022-09-19T12:32:53.069Z,23.90
2022-09-19T12:35:26.764Z,24.10
2022-09-19T12:38:10.818Z,24.10
2022-09-19T12:40:49.695Z,24.10
2022-09-19T12:43:29.392Z,24.00
2022-09-19T12:46:10.373Z,24.10
2022-09-19T12:48:46.875Z,24.00
2022-09-19T12:51:19.528Z,24.00
2022-09-19T12:53:54.122Z,24.20
2022-09-19T12:56:32.985Z,24.20
2022-09-19T12:59:07.671Z,24.20
2022-09-19T13:01:41.807Z,24.30
2022-09-19T13:04:22.879Z,24.40
2022-09-19T13:06:55.063Z,24.50
2022-09-19T13:09:31.652Z,24.50
2022-09-19T13:12:10.363Z,24.50
2022-09-19T13:14:48.219Z,24.30
2022-09-19T13:17:34.630Z,24.40
2022-09-19T13:20:21.206Z,24.50
2022-09-19T13:23:10.091Z,24.40
2022-09-19T13:25:38.911Z,24.50
2022-09-19T13:28:28.314Z,24.60
2022-09-19T13:31:14.112Z,24.60
2022-09-19T13:33:46.970Z,24.60
2022-09-19T13:36:16.802Z,24.70
2022-09-19T13:38:48.093Z,24.60
2022-09-19T13:41:29.255Z,24.60
2022-09-19T13:44:14.572Z,24.60
2022-09-19T13:46:54.150Z,24.70
2022-09-19T13:49:31.900Z,24.40
2022-09-19T13:52:04.592Z,24.50
2022-09-19T13:55:03.193Z,24.50
2022-09-19T13:57:34.898Z,24.40
2022-09-19T14:00:15.955Z,24.40
2022-09-19T14:02:47.787Z,24.40
2022-09-19T14:05:20.833Z,24.40
2022-09-19T14:10:50.577Z,24.40
2022-09-19T14:13:36.956Z,24.30
2022-09-19T14:16:31.743Z,24.20
2022-09-19T14:19:00.662Z,24.20
2022-09-19T14:21:57.044Z,24.30
2022-09-19T14:24:51.715Z,24.30
2022-09-19T14:27:55.460Z,24.20
2022-09-19T14:30:42.430Z,24.00
2022-09-19T14:33:58.715Z,24.00
2022-09-19T14:36:43.665Z,24.10
2022-09-19T14:39:55.028Z,24.10
2022-09-19T14:42:48.761Z,24.30
2022-09-19T14:45:27.434Z,24.20
2022-09-19T14:48:00.011Z,24.20
2022-09-19T14:50:38.225Z,24.10
2022-09-19T14:53:11.276Z,24.10
2022-09-19T14:55:49.547Z,24.20
2022-09-19T14:58:25.832Z,24.30
2022-09-19T15:00:57.883Z,24.20
2022-09-19T15:03:26.752Z,24.30
2022-09-19T15:05:57.205Z,24.30
2022-09-19T15:08:29.789Z,24.10
2022-09-19T15:11:01.811Z,24.10
2022-09-19T15:13:31.502Z,24.00
2022-09-19T15:16:04.028Z,24.10
2022-09-19T15:18:37.409Z,24.00
2022-09-19T15:21:09.168Z,24.00
2022-09-19T15:23:39.592Z,24.00
2022-09-19T15:26:12.340Z,24.00
2022-09-19T15:28:40.929Z,23.90
2022-09-19T15:31:22.684Z,23.90
2022-09-19T15:34:00.045Z,23.80
2022-09-19T15:36:31.539Z,23.70
2022-09-19T15:39:01.421Z,23.70
2022-09-19T15:41:32.070Z,23.60
2022-09-19T15:44:02.587Z,23.60
2022-09-19T15:46:49.405Z,23.60
2022-09-19T15:49:31.821Z,23.50
2022-09-19T15:52:04.583Z,23.50
2022-09-19T15:54:33.525Z,23.50
2022-09-19T15:57:15.165Z,23.60
2022-09-19T15:59:49.134Z,23.50
2022-09-19T16:02:23.600Z,23.40
2022-09-19T16:05:16.475Z,23.40
2022-09-19T16:08:08.206Z,23.40
2022-09-19T16:10:53.484Z,23.20
2022-09-19T16:13:40.078Z,23.30
2022-09-19T16:16:28.812Z,23.10
2022-09-19T16:18:58.001Z,23.10
2022-09-19T16:21:34.359Z,23.10
2022-09-19T16:24:05.163Z,22.90
2022-09-19T16:26:36.290Z,22.90
2022-09-19T16:29:05.376Z,23.00
2022-09-19T16:31:36.595Z,22.80
2022-09-19T16:34:09.088Z,22.80
2022-09-19T16:36:43.942Z,22.60
2022-09-19T16:39:23.544Z,22.50
2022-09-19T16:42:04.569Z,22.40
2022-09-19T16:47:27.133Z,22.40
2022-09-19T16:49:56.669Z,22.40
2022-09-19T16:52:27.203Z,22.20
2022-09-19T16:54:59.857Z,22.20
2022-09-19T16:57:28.727Z,22.20
2022-09-19T16:59:57.334Z,22.10
2022-09-19T17:02:27.677Z,22.00
2022-09-19T17:04:56.666Z,22.00
2022-09-19T17:07:24.943Z,21.90
2022-09-19T17:09:54.064Z,22.00
2022-09-19T17:12:25.220Z,21.90
2022-09-19T17:14:53.916Z,21.80
2022-09-19T17:17:22.191Z,21.70
2022-09-19T17:19:50.503Z,21.70
2022-09-19T17:22:20.698Z,21.70
2022-09-19T17:24:49.081Z,21.50
2022-09-19T17:27:17.525Z,21.40
2022-09-19T17:29:47.287Z,21.40
2022-09-19T17:32:16.919Z,21.60
2022-09-19T17:34:45.173Z,21.60
2022-09-19T17:37:13.374Z,21.50
2022-09-19T17:39:41.562Z,21.30
2022-09-19T17:42:14.091Z,21.30
2022-09-19T17:44:44.317Z,21.20
2022-09-19T17:47:28.677Z,21.10
2022-09-19T17:50:02.222Z,21.20
2022-09-19T17:52:30.505Z,21.20
2022-09-19T17:54:58.788Z,21.20
2022-09-19T17:57:27.935Z,21.10
2022-09-19T18:00:00.550Z,21.00
2022-09-19T18:02:47.879Z,21.00
2022-09-19T18:05:24.024Z,20.90
2022-09-19T18:07:55.532Z,21.00
2022-09-19T18:10:25.609Z,21.00
2022-09-19T18:12:56.056Z,21.00
2022-09-19T18:15:26.516Z,20.90
2022-09-19T18:17:56.451Z,21.10
2022-09-19T18:20:29.842Z,21.00
2022-09-19T18:22:58.594Z,20.90
2022-09-19T18:25:29.671Z,20.90
2022-09-19T18:27:58.088Z,21.00
2022-09-19T18:30:26.367Z,21.00
2022-09-19T18:32:57.998Z,20.80
2022-09-19T18:35:26.534Z,20.80
2022-09-19T18:37:54.749Z,20.70
2022-09-19T18:40:23.148Z,20.80
2022-09-19T18:42:52.742Z,20.80
2022-09-19T18:45:21.022Z,20.80
2022-09-19T18:47:49.490Z,20.50
2022-09-19T18:50:19.279Z,20.50
2022-09-19T18:52:47.971Z,20.50
2022-09-19T18:55:17.015Z,20.80
2022-09-19T18:57:45.295Z,20.70
2022-09-19T19:00:14.364Z,20.60
2022-09-19T19:02:42.562Z,20.30
2022-09-19T19:05:11.139Z,19.90
2022-09-19T19:07:42.395Z,19.70
2022-09-19T19:10:11.289Z,19.80
2022-09-19T19:12:44.974Z,19.80
2022-09-19T19:15:18.231Z,19.80
2022-09-19T19:17:47.268Z,19.90
2022-09-19T19:20:16.145Z,19.80
2022-09-19T19:22:48.057Z,19.80
2022-09-19T19:25:16.583Z,19.90
2022-09-19T19:27:48.137Z,20.00
2022-09-19T19:30:18.654Z,20.20
2022-09-19T19:32:47.151Z,20.30
2022-09-19T19:35:18.816Z,20.20
2022-09-19T19:37:49.126Z,20.20
2022-09-19T19:40:17.478Z,20.20
2022-09-19T19:42:45.798Z,20.20
2022-09-19T19:45:14.027Z,20.20
2022-09-19T19:47:42.173Z,20.20
2022-09-19T19:50:11.035Z,20.10
2022-09-19T19:52:39.657Z,20.10
2022-09-19T19:55:11.022Z,20.00
2022-09-19T19:57:40.688Z,19.80
2022-09-19T20:00:09.896Z,19.80
2022-09-19T20:02:38.741Z,19.90
2022-09-19T20:05:07.588Z,19.80
2022-09-19T20:07:36.291Z,19.80
2022-09-19T20:10:05.510Z,19.60
2022-09-19T20:12:35.086Z,19.60
2022-09-19T20:15:03.348Z,19.50
2022-09-19T20:17:31.658Z,19.40
2022-09-19T20:20:00.617Z,19.20
2022-09-19T20:22:29.079Z,19.10
2022-09-19T20:24:57.236Z,18.90
2022-09-19T20:27:25.452Z,18.90
2022-09-19T20:29:55.172Z,19.00
2022-09-19T20:32:23.438Z,18.90
2022-09-19T20:34:51.623Z,18.80
2022-09-19T20:37:20.279Z,18.90
2022-09-19T20:39:48.474Z,18.80
2022-09-19T20:42:18.270Z,18.60
2022-09-19T20:44:46.737Z,18.60
2022-09-19T20:47:16.362Z,18.60
2022-09-19T20:49:44.562Z,18.60
2022-09-19T20:52:12.740Z,18.50
2022-09-19T20:54:41.418Z,18.40
2022-09-19T20:57:09.612Z,18.30
2022-09-19T20:59:38.084Z,18.40
2022-09-19T21:02:06.414Z,18.40
2022-09-19T21:04:35.999Z,18.40
2022-09-19T21:07:04.202Z,18.50
2022-09-19T21:09:35.026Z,18.50
2022-09-19T21:12:17.999Z,18.60
2022-09-19T21:14:52.148Z,18.60
2022-09-19T21:17:20.420Z,18.60
2022-09-19T21:19:50.082Z,18.70
2022-09-19T21:22:18.287Z,18.60
2022-09-19T21:24:46.781Z,18.60
2022-09-19T21:27:14.937Z,18.60
2022-09-19T21:29:43.182Z,18.60
2022-09-19T21:32:11.327Z,18.70
2022-09-19T21:34:39.873Z,18.70
2022-09-19T21:37:09.417Z,18.50
2022-09-19T21:39:37.598Z,18.60
2022-09-19T21:42:06.038Z,18.40
2022-09-19T21:44:34.195Z,18.30
2022-09-19T21:47:02.505Z,18.40
2022-09-19T21:49:30.679Z,18.50
2022-09-19T21:51:58.866Z,18.60
2022-09-19T21:54:28.493Z,18.70
2022-09-19T21:56:56.776Z,18.70
2022-09-19T21:59:25.018Z,18.80
2022-09-19T22:01:53.276Z,18.80
2022-09-19T22:04:22.028Z,18.70
2022-09-19T22:06:50.417Z,18.80
2022-09-19T22:09:18.661Z,18.80
2022-09-19T22:11:48.322Z,18.60
2022-09-19T22:14:16.613Z,18.70
2022-09-19T22:16:44.975Z,18.70
2022-09-19T22:19:13.314Z,18.70
2022-09-19T22:21:41.966Z,18.50
2022-09-19T22:24:11.259Z,18.30
2022-09-19T22:26:39.596Z,17.80
2022-09-19T22:29:09.262Z,17.80
2022-09-19T22:31:38.129Z,17.70
2022-09-19T22:34:07.202Z,17.40
2022-09-19T22:36:37.584Z,17.30
2022-09-19T22:39:06.145Z,17.30
2022-09-19T22:41:36.441Z,17.30
2022-09-19T22:44:04.762Z,17.30
2022-09-19T22:46:35.202Z,17.60
2022-09-19T22:49:04.310Z,17.70
2022-09-19T22:51:32.714Z,17.70
2022-09-19T22:54:01.150Z,17.80
2022-09-19T22:56:30.458Z,17.60
2022-09-19T22:58:59.610Z,17.60
2022-09-19T23:01:30.085Z,17.50
2022-09-19T23:04:01.668Z,17.50
2022-09-19T23:06:32.383Z,17.50
2022-09-19T23:09:02.227Z,17.40
2022-09-19T23:11:32.952Z,17.60
2022-09-19T23:14:03.254Z,17.80
2022-09-19T23:16:33.349Z,17.80
2022-09-19T23:19:04.930Z,17.90
2022-09-19T23:21:36.682Z,17.90
2022-09-19T23:24:05.614Z,17.80
2022-09-19T23:26:34.522Z,17.80
2022-09-19T23:29:03.572Z,17.70
2022-09-19T23:31:32.284Z,17.80
2022-09-19T23:34:01.985Z,17.80
2022-09-19T23:36:30.168Z,17.60
2022-09-19T23:39:00.024Z,17.50
2022-09-19T23:41:29.450Z,17.50
2022-09-19T23:43:58.915Z,17.50
2022-09-19T23:46:29.079Z,17.60
2022-09-19T23:48:58.183Z,17.60
2022-09-19T23:51:28.485Z,17.60
2022-09-19T23:53:59.386Z,17.60
2022-09-19T23:56:30.473Z,17.60
2022-09-19T23:58:58.988Z,17.40
